createdAt,value
2019-05-29T00:00:38.035Z,1.50
2019-05-29T00:03:08.285Z,1.53
2019-05-29T00:05:37.396Z,1.60
2019-05-29T00:08:06.513Z,1.60
2019-05-29T00:10:35.691Z,1.40
2019-05-29T00:13:06.119Z,1.70
2019-05-29T00:15:35.230Z,1.60
2019-05-29T00:18:04.499Z,1.67
2019-05-29T00:20:33.527Z,2.00
2019-05-29T00:23:02.486Z,1.33
2019-05-29T00:25:31.469Z,1.50
2019-05-29T00:28:00.966Z,1.70
2019-05-29T00:30:29.915Z,1.70
2019-05-29T00:32:58.935Z,1.47
2019-05-29T00:35:27.881Z,1.60
2019-05-29T00:37:56.844Z,1.67
2019-05-29T00:40:25.862Z,1.67
2019-05-29T00:42:55.103Z,1.80
2019-05-29T00:45:24.492Z,1.77
2019-05-29T00:47:53.703Z,1.63
2019-05-29T00:50:23.023Z,1.60
2019-05-29T00:52:52.259Z,1.70
2019-05-29T00:55:21.323Z,1.53
2019-05-29T00:57:50.296Z,1.90
2019-05-29T01:00:19.682Z,1.63
2019-05-29T01:02:48.795Z,1.60
2019-05-29T01:05:18.213Z,1.60
2019-05-29T01:07:47.483Z,1.60
2019-05-29T01:10:17.288Z,1.70
2019-05-29T01:12:46.332Z,1.40
2019-05-29T01:15:17.419Z,1.93
2019-05-29T01:17:46.527Z,1.70
2019-05-29T01:20:16.484Z,1.67
2019-05-29T01:22:45.811Z,1.73
2019-05-29T01:25:14.922Z,1.90
2019-05-29T01:27:43.922Z,1.90
2019-05-29T01:30:13.422Z,1.87
2019-05-29T01:32:42.512Z,2.00
2019-05-29T01:35:11.704Z,2.70
2019-05-29T01:37:40.732Z,1.93
2019-05-29T01:40:19.340Z,1.73
2019-05-29T01:42:40.627Z,1.73
2019-05-29T01:45:10.182Z,1.53
2019-05-29T01:47:39.110Z,1.70
2019-05-29T01:50:08.350Z,1.60
2019-05-29T01:52:37.271Z,1.87
2019-05-29T01:55:06.772Z,1.60
2019-05-29T01:57:35.712Z,1.60
2019-05-29T02:00:05.387Z,1.50
2019-05-29T02:02:34.395Z,1.50
2019-05-29T02:05:03.591Z,1.77
2019-05-29T02:07:32.533Z,1.60
2019-05-29T02:10:01.581Z,1.47
2019-05-29T02:12:30.591Z,1.50
2019-05-29T02:14:59.591Z,1.40
2019-05-29T02:17:28.534Z,1.60
2019-05-29T02:19:57.795Z,1.80
2019-05-29T02:22:27.157Z,1.60
2019-05-29T02:24:56.111Z,1.70
2019-05-29T02:27:25.609Z,1.70
2019-05-29T02:29:54.560Z,1.90
2019-05-29T02:32:23.675Z,1.80
2019-05-29T02:34:52.640Z,1.63
2019-05-29T02:37:22.264Z,1.83
2019-05-29T02:39:51.273Z,1.63
2019-05-29T02:42:20.982Z,1.40
2019-05-29T02:44:50.553Z,1.40
2019-05-29T02:47:21.561Z,1.43
2019-05-29T02:49:50.586Z,1.50
2019-05-29T02:52:20.099Z,1.57
2019-05-29T02:54:49.194Z,1.83
2019-05-29T02:57:18.200Z,1.50
2019-05-29T02:59:47.228Z,1.60
2019-05-29T03:02:16.156Z,1.83
2019-05-29T03:04:45.215Z,1.80
2019-05-29T03:07:14.284Z,1.93
2019-05-29T03:09:43.510Z,1.70
2019-05-29T03:12:12.431Z,1.53
2019-05-29T03:14:41.700Z,1.40
2019-05-29T03:17:10.717Z,1.77
2019-05-29T03:19:39.751Z,1.60
2019-05-29T03:22:08.862Z,1.67
2019-05-29T03:24:37.824Z,1.60
2019-05-29T03:27:06.831Z,1.60
2019-05-29T03:29:35.752Z,1.70
2019-05-29T03:32:04.834Z,1.60
2019-05-29T03:34:39.402Z,1.70
2019-05-29T03:37:04.711Z,1.67
2019-05-29T03:39:34.597Z,1.50
2019-05-29T03:42:03.830Z,1.93
2019-05-29T03:44:33.666Z,1.40
2019-05-29T03:47:03.468Z,1.50
2019-05-29T03:49:33.158Z,1.80
2019-05-29T03:52:02.562Z,1.83
2019-05-29T03:54:33.767Z,1.80
2019-05-29T03:57:02.174Z,1.50
2019-05-29T03:59:32.556Z,1.93
2019-05-29T04:02:01.640Z,2.10
2019-05-29T04:04:31.336Z,1.77
2019-05-29T04:07:01.103Z,2.00
2019-05-29T04:09:31.305Z,1.53
2019-05-29T04:12:00.302Z,1.70
2019-05-29T04:14:29.772Z,1.87
2019-05-29T04:17:00.797Z,1.67
2019-05-29T04:19:32.587Z,1.50
2019-05-29T04:22:07.530Z,1.90
2019-05-29T04:24:39.605Z,1.50
2019-05-29T04:27:12.416Z,1.67
2019-05-29T04:29:42.862Z,1.67
2019-05-29T04:32:12.578Z,1.77
2019-05-29T04:34:41.540Z,1.83
2019-05-29T04:37:10.489Z,1.67
2019-05-29T04:39:39.526Z,1.70
2019-05-29T04:42:08.731Z,1.97
2019-05-29T04:44:38.879Z,1.90
2019-05-29T04:47:11.454Z,1.50
2019-05-29T04:49:39.879Z,1.80
2019-05-29T04:52:09.113Z,2.00
2019-05-29T04:54:40.029Z,1.83
2019-05-29T04:57:08.993Z,1.77
2019-05-29T04:59:39.176Z,1.80
2019-05-29T05:02:08.460Z,1.83
2019-05-29T05:04:37.676Z,1.80
2019-05-29T05:07:06.802Z,1.73
2019-05-29T05:09:35.737Z,1.70
2019-05-29T05:12:04.867Z,1.70
2019-05-29T05:14:33.979Z,2.03
2019-05-29T05:17:02.932Z,2.07
2019-05-29T05:19:31.876Z,1.60
2019-05-29T05:22:00.907Z,1.87
2019-05-29T05:24:30.183Z,1.50
2019-05-29T05:26:59.086Z,1.80
2019-05-29T05:29:28.042Z,1.43
2019-05-29T05:31:57.200Z,2.00
2019-05-29T05:34:26.467Z,1.70
2019-05-29T05:36:55.686Z,2.20
2019-05-29T05:39:24.658Z,2.07
2019-05-29T05:41:53.720Z,1.87
2019-05-29T05:44:22.786Z,1.70
2019-05-29T05:46:52.084Z,1.70
2019-05-29T05:49:21.287Z,1.60
2019-05-29T05:51:50.280Z,1.70
2019-05-29T05:54:19.360Z,2.10
2019-05-29T05:56:48.345Z,1.70
2019-05-29T05:59:17.370Z,1.90
2019-05-29T06:01:46.425Z,1.43
2019-05-29T06:04:15.505Z,1.60
2019-05-29T06:06:44.765Z,1.53
2019-05-29T06:09:13.714Z,1.60
2019-05-29T06:11:42.763Z,1.40
2019-05-29T06:14:11.849Z,1.60
2019-05-29T06:17:06.171Z,1.33
2019-05-29T06:19:36.678Z,1.80
2019-05-29T06:22:05.999Z,1.63
2019-05-29T06:24:37.363Z,1.40
2019-05-29T06:27:06.364Z,1.50
2019-05-29T06:29:35.640Z,2.07
2019-05-29T06:32:05.108Z,1.60
2019-05-29T06:34:35.569Z,1.30
2019-05-29T06:37:04.851Z,1.60
2019-05-29T06:39:33.882Z,1.30
2019-05-29T06:42:03.016Z,1.30
2019-05-29T06:44:32.192Z,1.20
2019-05-29T06:47:01.611Z,1.37
2019-05-29T06:49:31.039Z,1.47
2019-05-29T06:52:00.075Z,1.90
2019-05-29T06:54:29.040Z,1.40
2019-05-29T06:56:58.042Z,1.77
2019-05-29T06:59:27.030Z,1.27
2019-05-29T07:01:55.967Z,1.37
2019-05-29T07:04:25.096Z,1.27
2019-05-29T07:06:54.109Z,1.40
2019-05-29T07:09:23.065Z,1.20
2019-05-29T07:11:52.027Z,1.60
2019-05-29T07:14:21.053Z,1.40
2019-05-29T07:16:55.914Z,1.63
2019-05-29T07:19:29.642Z,1.20
2019-05-29T07:21:52.072Z,1.20
2019-05-29T07:24:21.115Z,1.50
2019-05-29T07:26:50.297Z,1.53
2019-05-29T07:29:19.272Z,1.60
2019-05-29T07:31:48.272Z,1.40
2019-05-29T07:34:17.266Z,1.57
2019-05-29T07:36:46.206Z,1.50
2019-05-29T07:39:15.250Z,1.83
2019-05-29T07:41:44.361Z,1.70
2019-05-29T07:44:13.363Z,1.37
2019-05-29T07:46:42.388Z,1.80
2019-05-29T07:49:11.411Z,1.63
2019-05-29T07:51:40.626Z,1.50
2019-05-29T07:54:09.632Z,1.40
2019-05-29T07:56:38.564Z,1.40
2019-05-29T07:59:07.601Z,1.30
2019-05-29T08:01:36.865Z,1.60
2019-05-29T08:04:05.917Z,1.10
2019-05-29T08:06:35.113Z,1.40
2019-05-29T08:09:06.379Z,1.30
2019-05-29T08:11:35.391Z,1.50
2019-05-29T08:14:04.749Z,1.20
2019-05-29T08:16:33.808Z,1.27
2019-05-29T08:19:03.041Z,1.27
2019-05-29T08:21:31.974Z,1.53
2019-05-29T08:24:01.019Z,1.10
2019-05-29T08:26:29.967Z,1.03
2019-05-29T08:28:59.659Z,1.20
2019-05-29T08:31:28.695Z,1.23
2019-05-29T08:33:57.647Z,1.10
2019-05-29T08:36:26.673Z,1.00
2019-05-29T08:38:55.964Z,5.83
2019-05-29T08:41:24.990Z,1.40
2019-05-29T08:43:54.211Z,1.23
2019-05-29T08:46:23.243Z,1.33
2019-05-29T08:48:52.532Z,0.90
2019-05-29T08:51:22.026Z,0.97
2019-05-29T08:53:52.498Z,1.07
2019-05-29T08:56:22.448Z,1.10
2019-05-29T08:58:52.516Z,1.10
2019-05-29T09:01:21.738Z,1.10
2019-05-29T09:03:51.167Z,1.40
2019-05-29T09:06:20.997Z,1.10
2019-05-29T09:08:52.062Z,1.07
2019-05-29T09:11:21.115Z,1.23
2019-05-29T09:13:50.063Z,1.10
2019-05-29T09:16:19.048Z,1.07
2019-05-29T09:18:47.992Z,1.03
2019-05-29T09:21:17.978Z,1.17
2019-05-29T09:23:48.265Z,1.57
2019-05-29T09:26:22.246Z,1.10
2019-05-29T09:28:48.765Z,1.20
2019-05-29T09:31:18.683Z,1.27
2019-05-29T09:33:48.400Z,1.27
2019-05-29T09:36:18.620Z,1.40
2019-05-29T09:38:47.815Z,1.30
2019-05-29T09:41:17.391Z,1.10
2019-05-29T09:43:58.321Z,1.30
2019-05-29T09:46:18.816Z,1.10
2019-05-29T09:48:49.967Z,1.17
2019-05-29T09:51:21.649Z,1.30
2019-05-29T09:53:49.449Z,1.27
2019-05-29T09:56:18.607Z,1.33
2019-05-29T09:58:47.771Z,1.33
2019-05-29T10:01:23.524Z,1.17
2019-05-29T10:03:47.769Z,1.17
2019-05-29T10:06:16.808Z,1.23
2019-05-29T10:08:47.423Z,1.20
2019-05-29T10:11:16.549Z,1.27
2019-05-29T10:13:45.644Z,1.30
2019-05-29T10:16:14.773Z,1.27
2019-05-29T10:18:43.870Z,1.13
2019-05-29T10:21:12.842Z,1.10
2019-05-29T10:23:41.809Z,1.50
2019-05-29T10:26:11.012Z,1.40
2019-05-29T10:28:55.633Z,1.50
2019-05-29T10:31:11.221Z,1.20
2019-05-29T10:33:40.195Z,1.27
2019-05-29T10:36:09.253Z,1.00
2019-05-29T10:38:38.207Z,1.10
2019-05-29T10:41:07.565Z,1.20
2019-05-29T10:43:36.829Z,1.10
2019-05-29T10:46:05.940Z,1.10
2019-05-29T10:48:34.884Z,1.20
2019-05-29T10:51:03.929Z,1.27
2019-05-29T10:53:32.953Z,1.53
2019-05-29T10:56:02.318Z,1.10
2019-05-29T10:58:45.768Z,1.60
2019-05-29T11:01:02.244Z,1.13
2019-05-29T11:03:31.454Z,1.23
2019-05-29T11:06:00.596Z,1.20
2019-05-29T11:08:29.614Z,1.60
2019-05-29T11:10:58.579Z,1.20
2019-05-29T11:13:27.876Z,1.33
2019-05-29T11:15:56.960Z,1.30
2019-05-29T11:18:25.986Z,1.20
2019-05-29T11:20:55.463Z,1.20
2019-05-29T11:23:24.854Z,1.30
2019-05-29T11:25:54.039Z,1.43
2019-05-29T11:28:23.251Z,1.20
2019-05-29T11:30:53.598Z,1.10
2019-05-29T11:33:22.934Z,1.30
2019-05-29T11:36:03.295Z,1.17
2019-05-29T11:38:22.935Z,1.20
2019-05-29T11:41:03.795Z,1.30
2019-05-29T11:43:22.720Z,1.20
2019-05-29T11:45:53.085Z,1.57
2019-05-29T11:48:22.404Z,1.40
2019-05-29T11:50:52.135Z,1.00
2019-05-29T11:53:21.264Z,1.20
2019-05-29T11:55:52.361Z,1.27
2019-05-29T11:58:30.599Z,1.27
2019-05-29T12:00:52.907Z,1.20
2019-05-29T12:03:22.134Z,1.20
2019-05-29T12:05:51.644Z,1.20
2019-05-29T12:08:20.632Z,1.33
2019-05-29T12:10:49.667Z,1.27
2019-05-29T12:13:18.903Z,1.30
2019-05-29T12:15:48.030Z,1.07
2019-05-29T12:18:23.518Z,1.17
2019-05-29T12:20:47.931Z,1.20
2019-05-29T12:23:25.940Z,1.00
2019-05-29T12:25:47.903Z,1.40
2019-05-29T12:28:17.040Z,1.20
2019-05-29T12:30:45.980Z,1.37
2019-05-29T12:33:15.220Z,1.80
2019-05-29T12:35:50.064Z,1.30
2019-05-29T12:38:17.300Z,1.10
2019-05-29T12:40:46.252Z,1.30
2019-05-29T12:43:26.483Z,1.20
2019-05-29T12:45:46.204Z,1.40
2019-05-29T12:48:16.120Z,1.13
2019-05-29T12:50:45.805Z,1.00
2019-05-29T12:53:29.507Z,1.20
2019-05-29T12:55:45.545Z,1.10
2019-05-29T12:58:14.521Z,1.30
2019-05-29T13:00:43.536Z,1.10
2019-05-29T13:03:12.596Z,1.40
2019-05-29T13:05:41.536Z,1.27
2019-05-29T13:08:10.586Z,1.10
2019-05-29T13:10:39.677Z,1.10
2019-05-29T13:13:11.279Z,1.53
2019-05-29T13:15:39.517Z,1.13
2019-05-29T13:18:10.099Z,1.40
2019-05-29T13:20:39.332Z,1.30
2019-05-29T13:23:08.765Z,1.80
2019-05-29T13:25:37.664Z,1.40
2019-05-29T13:28:06.717Z,1.30
2019-05-29T13:30:35.765Z,1.20
2019-05-29T13:33:07.422Z,1.30
2019-05-29T13:35:36.353Z,1.50
2019-05-29T13:38:05.695Z,1.40
2019-05-29T13:40:34.743Z,1.10
2019-05-29T13:43:11.102Z,1.20
2019-05-29T13:45:34.610Z,1.20
2019-05-29T13:48:05.401Z,1.40
2019-05-29T13:50:43.828Z,1.37
2019-05-29T13:53:13.204Z,1.30
2019-05-29T13:55:42.297Z,1.80
2019-05-29T13:58:11.251Z,1.77
2019-05-29T14:00:40.334Z,1.10
2019-05-29T14:03:09.400Z,1.30
2019-05-29T14:05:38.293Z,1.40
2019-05-29T14:08:07.347Z,1.47
2019-05-29T14:10:36.304Z,1.30
2019-05-29T14:13:05.522Z,1.30
2019-05-29T14:15:34.477Z,1.50
2019-05-29T14:18:04.927Z,1.20
2019-05-29T14:20:34.118Z,1.37
2019-05-29T14:23:03.403Z,1.30
2019-05-29T14:25:32.718Z,1.53
2019-05-29T14:28:02.667Z,1.50
2019-05-29T14:31:00.116Z,1.30
2019-05-29T14:33:29.207Z,1.27
2019-05-29T14:35:58.151Z,1.43
2019-05-29T14:38:27.139Z,1.40
2019-05-29T14:40:56.076Z,1.10
2019-05-29T14:43:25.036Z,1.20
2019-05-29T14:45:53.986Z,1.50
2019-05-29T14:48:22.993Z,1.50
2019-05-29T14:50:51.947Z,1.10
2019-05-29T14:53:20.903Z,1.10
2019-05-29T14:55:49.909Z,1.20
2019-05-29T14:58:18.984Z,1.30
2019-05-29T15:00:48.028Z,1.27
2019-05-29T15:03:17.074Z,1.30
2019-05-29T15:05:46.054Z,1.10
2019-05-29T15:08:15.049Z,1.40
2019-05-29T15:10:44.363Z,1.17
2019-05-29T15:13:15.134Z,1.20
2019-05-29T15:15:44.261Z,1.20
2019-05-29T15:18:17.326Z,1.00
2019-05-29T15:20:43.861Z,1.30
2019-05-29T15:23:13.514Z,1.30
2019-05-29T15:25:42.867Z,1.40
2019-05-29T15:28:14.020Z,1.00
2019-05-29T15:30:42.525Z,1.30
2019-05-29T15:33:12.595Z,1.10
2019-05-29T15:35:42.176Z,1.10
2019-05-29T15:38:11.111Z,1.20
2019-05-29T15:40:40.083Z,1.30
2019-05-29T15:43:09.115Z,1.80
2019-05-29T15:45:38.209Z,1.17
2019-05-29T15:48:07.120Z,1.23
2019-05-29T15:50:36.144Z,1.00
2019-05-29T15:53:06.979Z,1.07
2019-05-29T15:55:36.359Z,1.20
2019-05-29T15:58:05.578Z,1.40
2019-05-29T16:00:34.611Z,1.17
2019-05-29T16:03:03.730Z,1.30
2019-05-29T16:05:32.697Z,1.50
2019-05-29T16:08:01.872Z,1.20
2019-05-29T16:10:31.081Z,1.30
2019-05-29T16:13:00.173Z,1.03
2019-05-29T16:15:29.184Z,1.63
2019-05-29T16:17:58.179Z,1.10
2019-05-29T16:20:28.019Z,1.00
2019-05-29T16:22:57.029Z,1.10
2019-05-29T16:25:39.390Z,1.30
2019-05-29T16:27:56.698Z,1.37
2019-05-29T16:30:25.827Z,1.00
2019-05-29T16:32:54.830Z,1.30
2019-05-29T16:35:24.205Z,1.20
2019-05-29T16:37:53.574Z,1.10
2019-05-29T16:40:24.176Z,1.17
2019-05-29T16:42:53.139Z,1.10
2019-05-29T16:45:22.558Z,1.10
2019-05-29T16:47:51.640Z,1.30
2019-05-29T16:50:21.276Z,1.20
2019-05-29T16:52:50.463Z,1.13
2019-05-29T16:55:19.541Z,1.20
2019-05-29T16:57:48.529Z,1.10
2019-05-29T17:00:19.984Z,1.67
2019-05-29T17:02:50.239Z,1.37
2019-05-29T17:05:20.546Z,1.20
2019-05-29T17:07:49.903Z,1.10
2019-05-29T17:10:20.387Z,0.90
2019-05-29T17:12:49.442Z,1.20
2019-05-29T17:15:18.932Z,1.43
2019-05-29T17:17:48.224Z,1.03
2019-05-29T17:20:21.315Z,0.93
2019-05-29T17:22:50.278Z,1.10
2019-05-29T17:25:20.649Z,1.10
2019-05-29T17:27:50.132Z,1.20
2019-05-29T17:30:23.069Z,1.20
2019-05-29T17:32:52.089Z,1.30
2019-05-29T17:35:21.239Z,1.00
2019-05-29T17:37:50.717Z,1.10
2019-05-29T17:40:21.172Z,1.30
2019-05-29T17:42:50.795Z,1.17
2019-05-29T17:45:23.910Z,1.53
2019-05-29T17:47:50.774Z,1.10
2019-05-29T17:50:22.906Z,1.10
2019-05-29T17:52:50.851Z,1.50
2019-05-29T17:55:21.832Z,1.10
2019-05-29T17:57:50.964Z,1.20
2019-05-29T18:00:22.525Z,1.43
2019-05-29T18:02:52.783Z,1.00
2019-05-29T18:05:22.671Z,1.17
2019-05-29T18:07:51.898Z,1.10
2019-05-29T18:10:22.498Z,1.43
2019-05-29T18:12:51.822Z,1.80
2019-05-29T18:15:21.621Z,1.30
2019-05-29T18:17:50.976Z,1.20
2019-05-29T18:20:21.693Z,1.10
2019-05-29T18:22:50.849Z,1.17
2019-05-29T18:25:19.943Z,1.20
2019-05-29T18:27:48.907Z,1.20
2019-05-29T18:30:18.235Z,1.80
2019-05-29T18:32:47.531Z,1.30
2019-05-29T18:35:16.680Z,1.10
2019-05-29T18:37:45.623Z,1.10
2019-05-29T18:40:15.830Z,1.20
2019-05-29T18:42:44.807Z,1.30
2019-05-29T18:45:20.913Z,1.10
2019-05-29T18:47:45.364Z,1.00
2019-05-29T18:50:14.652Z,1.67
2019-05-29T18:52:43.770Z,1.10
2019-05-29T18:55:13.066Z,1.13
2019-05-29T18:57:42.071Z,1.47
2019-05-29T19:00:11.843Z,1.83
2019-05-29T19:02:40.987Z,1.20
2019-05-29T19:05:10.433Z,1.50
2019-05-29T19:07:39.536Z,1.87
2019-05-29T19:10:10.611Z,1.80
2019-05-29T19:12:39.643Z,1.63
2019-05-29T19:15:09.420Z,1.73
2019-05-29T19:17:38.415Z,1.70
2019-05-29T19:20:08.711Z,1.67
2019-05-29T19:22:37.657Z,1.83
2019-05-29T19:25:07.162Z,1.70
2019-05-29T19:27:41.617Z,1.43
2019-05-29T19:30:07.134Z,1.53
2019-05-29T19:32:36.223Z,1.40
2019-05-29T19:35:05.851Z,1.20
2019-05-29T19:37:35.142Z,1.40
2019-05-29T19:40:04.627Z,1.20
2019-05-29T19:42:34.321Z,1.30
2019-05-29T19:45:03.416Z,1.40
2019-05-29T19:47:32.794Z,1.20
2019-05-29T19:50:02.186Z,1.10
2019-05-29T19:52:31.227Z,1.30
2019-05-29T19:55:00.183Z,1.20
2019-05-29T19:57:29.887Z,1.23
2019-05-29T19:59:59.969Z,1.40
2019-05-29T20:02:28.904Z,1.30
2019-05-29T20:04:58.115Z,1.30
2019-05-29T20:07:27.116Z,1.30
2019-05-29T20:09:56.088Z,1.30
2019-05-29T20:12:25.054Z,1.60
2019-05-29T20:14:54.485Z,1.57
2019-05-29T20:17:23.515Z,2.10
2019-05-29T20:19:52.495Z,1.87
2019-05-29T20:22:21.707Z,1.70
2019-05-29T20:24:50.675Z,1.80
2019-05-29T20:27:19.686Z,1.57
2019-05-29T20:29:48.651Z,1.50
2019-05-29T20:32:17.695Z,1.80
2019-05-29T20:34:47.019Z,1.80
2019-05-29T20:37:16.822Z,1.60
2019-05-29T20:39:45.823Z,1.93
2019-05-29T20:42:15.126Z,2.00
2019-05-29T20:44:44.187Z,1.83
2019-05-29T20:47:13.417Z,1.80
2019-05-29T20:49:42.746Z,2.10
2019-05-29T20:52:12.052Z,1.83
2019-05-29T20:54:41.813Z,2.00
2019-05-29T20:57:11.535Z,2.10
2019-05-29T20:59:42.176Z,1.90
2019-05-29T21:02:12.226Z,1.80
2019-05-29T21:04:42.682Z,2.00
2019-05-29T21:07:11.853Z,2.00
2019-05-29T21:09:41.181Z,1.77
2019-05-29T21:12:10.455Z,1.87
2019-05-29T21:14:39.734Z,1.90
2019-05-29T21:17:08.826Z,2.00
2019-05-29T21:19:38.221Z,1.70
2019-05-29T21:22:07.629Z,2.67
2019-05-29T21:24:36.596Z,3.00
2019-05-29T21:27:05.608Z,3.00
2019-05-29T21:29:35.162Z,2.53
2019-05-29T21:32:04.326Z,2.47
2019-05-29T21:34:33.379Z,3.30
2019-05-29T21:37:02.351Z,2.70
2019-05-29T21:39:31.312Z,2.40
2019-05-29T21:42:00.263Z,2.70
2019-05-29T21:44:29.536Z,2.40
2019-05-29T21:46:58.489Z,2.70
2019-05-29T21:49:31.013Z,2.80
2019-05-29T21:51:58.087Z,2.70
2019-05-29T21:54:27.406Z,2.87
2019-05-29T21:56:56.681Z,2.90
2019-05-29T21:59:25.691Z,3.13
2019-05-29T22:01:54.817Z,3.10
2019-05-29T22:04:23.755Z,3.10
2019-05-29T22:06:52.885Z,3.10
2019-05-29T22:09:21.986Z,3.13
2019-05-29T22:11:52.181Z,3.10
2019-05-29T22:14:21.413Z,3.60
2019-05-29T22:16:50.899Z,3.17
2019-05-29T22:19:20.087Z,3.20
2019-05-29T22:21:49.457Z,3.53
2019-05-29T22:24:18.460Z,3.57
2019-05-29T22:26:47.504Z,4.00
2019-05-29T22:29:18.479Z,3.80
2019-05-29T22:31:47.199Z,3.70
2019-05-29T22:34:16.127Z,4.07
2019-05-29T22:36:45.191Z,3.53
2019-05-29T22:39:14.307Z,3.53
2019-05-29T22:41:43.275Z,3.80
2019-05-29T22:44:12.312Z,3.20
2019-05-29T22:46:41.331Z,4.10
2019-05-29T22:49:10.289Z,3.70
2019-05-29T22:51:39.227Z,3.83
2019-05-29T22:54:08.248Z,4.13
2019-05-29T22:56:37.204Z,3.50
2019-05-29T22:59:06.175Z,3.40
2019-05-29T23:01:35.203Z,3.40
2019-05-29T23:04:04.608Z,3.40
2019-05-29T23:06:33.576Z,3.87
2019-05-29T23:09:02.647Z,3.00
2019-05-29T23:11:31.558Z,3.40
2019-05-29T23:14:00.895Z,3.37
2019-05-29T23:16:29.865Z,3.00
2019-05-29T23:18:59.207Z,3.10
2019-05-29T23:21:28.172Z,3.20
2019-05-29T23:23:57.504Z,3.10
2019-05-29T23:26:26.747Z,3.20
2019-05-29T23:28:56.839Z,3.40
2019-05-29T23:31:25.946Z,3.20
2019-05-29T23:33:54.887Z,3.53
2019-05-29T23:36:23.923Z,3.43
2019-05-29T23:38:53.243Z,4.30
2019-05-29T23:41:22.122Z,4.67
2019-05-29T23:43:51.127Z,4.17
2019-05-29T23:46:20.078Z,4.30
2019-05-29T23:48:49.039Z,3.97
2019-05-29T23:51:18.059Z,4.37
2019-05-29T23:53:46.987Z,4.43
2019-05-29T23:56:16.161Z,4.50
2019-05-29T23:58:45.115Z,4.50
